createdAt,value
2023-02-11T20:39:17.517Z,8.40
2023-02-11T20:40:17.461Z,8.37
2023-02-11T20:41:17.425Z,8.37
2023-02-11T20:42:17.415Z,8.40
2023-02-11T20:43:17.292Z,8.36
2023-02-11T20:44:17.262Z,8.38
2023-02-11T20:45:17.253Z,8.38
2023-02-11T20:46:17.309Z,8.36
2023-02-11T20:47:17.196Z,8.36
2023-02-11T20:48:17.234Z,8.38
2023-02-11T20:49:17.183Z,8.44
2023-02-11T20:50:17.230Z,8.41
2023-02-11T20:51:17.230Z,8.40
2023-02-11T20:52:17.173Z,8.36
2023-02-11T20:53:17.202Z,8.37
2023-02-11T20:54:25.961Z,8.38
2023-02-11T20:55:17.152Z,8.37
2023-02-11T20:56:17.142Z,8.33
2023-02-11T20:57:17.119Z,8.34
2023-02-11T20:58:17.075Z,8.34
2023-02-11T20:59:17.148Z,8.34
2023-02-11T21:00:17.081Z,8.33
2023-02-11T21:01:17.128Z,8.33
2023-02-11T21:02:17.056Z,8.30
2023-02-11T21:03:17.104Z,8.34
2023-02-11T21:04:17.055Z,8.28
2023-02-11T21:05:17.023Z,8.30
2023-02-11T21:06:17.016Z,8.26
2023-02-11T21:07:17.005Z,8.26
2023-02-11T21:08:16.956Z,8.22
2023-02-11T21:09:16.957Z,8.22
2023-02-11T21:10:17.007Z,8.23
2023-02-11T21:11:17.012Z,8.18
2023-02-11T21:12:16.913Z,8.16
2023-02-11T21:13:16.898Z,8.16
2023-02-11T21:14:16.891Z,8.15
2023-02-11T21:15:16.899Z,8.16
2023-02-11T21:16:16.890Z,8.16
2023-02-11T21:17:16.857Z,8.18
2023-02-11T21:18:16.863Z,8.18
2023-02-11T21:19:16.827Z,8.18
2023-02-11T21:20:16.808Z,8.16
2023-02-11T21:21:16.802Z,8.16
2023-02-11T21:22:16.808Z,8.15
2023-02-11T21:23:16.752Z,8.15
2023-02-11T21:24:16.803Z,8.15
2023-02-11T21:25:16.787Z,8.08
2023-02-11T21:26:16.826Z,8.15
2023-02-11T21:27:16.824Z,8.12
2023-02-11T21:28:16.823Z,8.12
2023-02-11T21:29:16.694Z,8.12
2023-02-11T21:30:16.692Z,8.15
2023-02-11T21:31:16.742Z,8.16
2023-02-11T21:32:16.657Z,8.22
2023-02-11T21:33:16.659Z,8.15
2023-02-11T21:34:16.646Z,8.16
2023-02-11T21:35:16.612Z,8.12
2023-02-11T21:36:16.605Z,8.12
2023-02-11T21:37:16.610Z,8.19
2023-02-11T21:38:16.680Z,8.15
2023-02-11T21:39:16.577Z,8.15
2023-02-11T21:40:16.539Z,8.12
2023-02-11T21:41:16.530Z,8.15
2023-02-11T21:42:16.563Z,8.10
2023-02-11T21:43:16.574Z,8.12
2023-02-11T21:44:16.509Z,8.12
2023-02-11T21:45:16.550Z,8.08
2023-02-11T21:46:16.587Z,8.10
2023-02-11T21:47:16.475Z,8.08
2023-02-11T21:48:16.450Z,8.04
2023-02-11T21:49:16.485Z,8.02
2023-02-11T21:50:16.475Z,8.04
2023-02-11T21:51:16.469Z,8.02
2023-02-11T21:52:16.399Z,8.05
2023-02-11T21:53:16.417Z,8.07
2023-02-11T21:54:16.380Z,8.11
2023-02-11T21:55:16.367Z,8.10
2023-02-11T21:56:16.422Z,8.07
2023-02-11T21:57:16.354Z,8.07
2023-02-11T21:58:16.363Z,8.07
2023-02-11T21:59:16.353Z,8.10
2023-02-11T22:00:16.284Z,8.08
2023-02-11T22:01:16.327Z,8.05
2023-02-11T22:02:16.294Z,8.05
2023-02-11T22:03:16.263Z,8.07
2023-02-11T22:04:16.289Z,8.04
2023-02-11T22:05:16.250Z,8.02
2023-02-11T22:06:16.236Z,8.01
2023-02-11T22:07:16.315Z,8.02
2023-02-11T22:08:18.565Z,8.04
2023-02-11T22:09:16.195Z,8.01
2023-02-11T22:10:16.192Z,8.01
2023-02-11T22:11:16.158Z,8.04
2023-02-11T22:12:16.158Z,8.18
2023-02-11T22:13:16.178Z,8.20
2023-02-11T22:14:16.160Z,8.18
2023-02-11T22:15:16.134Z,8.18
2023-02-11T22:16:16.266Z,8.19
2023-02-11T22:17:16.194Z,8.20
2023-02-11T22:18:16.090Z,8.18
2023-02-11T22:19:16.052Z,8.16
2023-02-11T22:20:16.105Z,8.16
2023-02-11T22:21:16.038Z,8.15
2023-02-11T22:22:16.039Z,8.11
2023-02-11T22:23:16.067Z,8.15
2023-02-11T22:24:16.077Z,8.10
2023-02-11T22:25:16.014Z,8.11
2023-02-11T22:26:16.013Z,8.08
2023-02-11T22:27:17.394Z,8.10
2023-02-11T22:28:16.008Z,8.11
2023-02-11T22:29:15.927Z,8.20
2023-02-11T22:30:15.933Z,8.15
2023-02-11T22:31:16.088Z,8.15
2023-02-11T22:32:15.944Z,8.11
2023-02-11T22:33:15.888Z,8.15
2023-02-11T22:34:15.869Z,8.12
2023-02-11T22:35:15.897Z,8.18
2023-02-11T22:36:24.370Z,8.15
2023-02-11T22:37:15.796Z,8.15
2023-02-11T22:38:15.778Z,8.11
2023-02-11T22:39:15.781Z,8.12
2023-02-11T22:40:15.806Z,8.11
2023-02-11T22:41:15.795Z,8.15
2023-02-11T22:42:15.731Z,8.15
2023-02-11T22:43:15.759Z,8.10
2023-02-11T22:44:15.731Z,8.11
2023-02-11T22:45:15.716Z,8.10
2023-02-11T22:46:15.756Z,8.08
2023-02-11T22:47:15.715Z,8.10
2023-02-11T22:48:15.686Z,8.10
2023-02-11T22:49:15.673Z,8.10
2023-02-11T22:50:15.621Z,8.05
2023-02-11T22:51:15.616Z,8.05
2023-02-11T22:52:15.603Z,8.05
2023-02-11T22:53:15.587Z,8.00
2023-02-11T22:54:15.616Z,8.02
2023-02-11T22:55:15.553Z,8.01
2023-02-11T22:56:15.995Z,8.01
2023-02-11T22:57:15.562Z,8.01
2023-02-11T22:58:15.545Z,8.04
2023-02-11T22:59:32.517Z,8.01
2023-02-11T23:00:32.488Z,8.01
2023-02-11T23:01:32.542Z,8.02
2023-02-11T23:02:32.562Z,8.01
2023-02-11T23:03:39.952Z,8.02
2023-02-11T23:04:36.896Z,8.01
2023-02-11T23:05:32.404Z,8.02
2023-02-11T23:06:32.411Z,8.04
2023-02-11T23:07:32.384Z,8.04
2023-02-11T23:08:32.397Z,8.02
2023-02-11T23:09:32.356Z,8.02
2023-02-11T23:10:32.437Z,8.07
2023-02-11T23:11:32.327Z,8.08
2023-02-11T23:12:32.332Z,8.10
2023-02-11T23:13:32.330Z,8.11
2023-02-11T23:14:32.312Z,8.20
2023-02-11T23:15:32.290Z,8.23
2023-02-11T23:16:32.403Z,8.30
2023-02-11T23:17:32.259Z,8.30
2023-02-11T23:18:32.259Z,8.30
2023-02-11T23:19:32.277Z,8.28
2023-02-11T23:20:32.231Z,8.30
2023-02-11T23:21:32.262Z,8.37
2023-02-11T23:22:32.198Z,8.38
2023-02-11T23:23:32.205Z,8.40
2023-02-11T23:24:32.195Z,8.38
2023-02-11T23:25:32.179Z,8.41
2023-02-11T23:26:32.188Z,8.43
2023-02-11T23:27:32.171Z,8.43
2023-02-11T23:28:32.168Z,8.45
2023-02-11T23:29:32.135Z,8.47
2023-02-11T23:30:32.124Z,8.48
2023-02-11T23:31:32.253Z,8.47
2023-02-11T23:32:32.500Z,8.52
2023-02-11T23:33:32.268Z,8.48
2023-02-11T23:34:32.042Z,8.45
2023-02-11T23:35:32.070Z,8.47
2023-02-11T23:36:32.037Z,8.43
2023-02-11T23:37:32.009Z,8.44
2023-02-11T23:38:32.026Z,8.44
2023-02-11T23:39:31.990Z,8.43
2023-02-11T23:40:31.991Z,8.43
2023-02-11T23:41:31.978Z,8.43
2023-02-11T23:42:31.954Z,8.43
2023-02-11T23:43:31.940Z,8.44
2023-02-11T23:44:31.934Z,8.44
2023-02-11T23:45:31.997Z,8.47
2023-02-11T23:46:31.904Z,8.44
2023-02-11T23:47:31.902Z,8.45
2023-02-11T23:48:31.927Z,8.40
2023-02-11T23:49:31.872Z,8.38
2023-02-11T23:50:31.888Z,8.38
2023-02-11T23:51:31.854Z,8.36
2023-02-11T23:52:31.833Z,8.38
2023-02-11T23:53:31.822Z,8.37
2023-02-11T23:54:36.937Z,8.30
2023-02-11T23:55:31.819Z,8.26
2023-02-11T23:56:31.813Z,8.26
2023-02-11T23:57:31.789Z,8.25
2023-02-11T23:58:31.879Z,8.20
2023-02-11T23:59:31.754Z,8.20
